Andrews, North Carolina
Current Conditions -  °F | °C
As of 7:35 AM on Saturday 25 Oct 2014 (Local Time) from KRHP Reporting Station
Broken Clouds Broken Clouds  
Wind Chill: 32°   Ceiling: 300
Heat Index: 32°   Visibility: 7mi
Dew Point: 32°   Wind: 0mph
Humidity: 100%   Direction: NA
Pressure: 30.11"   Gusts: NA
Location:  35.2°N, 83.82°W
Report Text: KRHP 251135Z AUTO 00000KT 7SM BKN003 00/00 A3011 RMK AO2 T00000000
Loading
Personal Weather Stations






























Interactive Weather Map
Tropical Storm Tracking
New forecast layout! Learn more

10-Day Weather Forecast

Advertisements
Track Severe Weather on mobile